Terminal Aerodrome Forecast
Issued by NWS

Home | Current Version | Previous Version | Text Only | Print | Product List | Glossary On
Versions: 1 2 3 4 5 6 7 8 9 10 11 12 13 14 15 16 17 18 19 20
000
FTUS43 KSGF 181100
TAFJLN
TAF
KJLN 181133Z 1812/1912 07004KT 3SM -DZ BR OVC003
      TEMPO 1812/1816 2SM -RADZ BR OVC003
     FM181700 VRB04KT 5SM BR OVC007
     FM190000 03005KT 3SM BR OVC004=

USA.gov is the U.S. government's official web portal to all federal, state and local government web resources and services.